sensor_id;sensor_type;location;lat;lon;timestamp;temperature;humidity
7576;DHT22;3829;50.798;4.358;2023-11-21T00:00:17;10.60;99.90
7576;DHT22;3829;50.798;4.358;2023-11-21T00:02:44;10.40;99.90
7576;DHT22;3829;50.798;4.358;2023-11-21T00:05:12;10.40;99.90
7576;DHT22;3829;50.798;4.358;2023-11-21T00:07:39;10.40;99.90
7576;DHT22;3829;50.798;4.358;2023-11-21T00:10:06;10.40;99.90
7576;DHT22;3829;50.798;4.358;2023-11-21T00:12:32;10.50;99.90
7576;DHT22;3829;50.798;4.358;2023-11-21T00:14:58;10.50;99.90
7576;DHT22;3829;50.798;4.358;2023-11-21T00:17:24;10.60;99.90
7576;DHT22;3829;50.798;4.358;2023-11-21T00:19:50;10.60;99.90
7576;DHT22;3829;50.798;4.358;2023-11-21T00:22:17;10.60;99.90
7576;DHT22;3829;50.798;4.358;2023-11-21T00:24:43;10.70;99.90
7576;DHT22;3829;50.798;4.358;2023-11-21T00:27:09;10.60;99.90
7576;DHT22;3829;50.798;4.358;2023-11-21T00:29:34;10.60;99.90
7576;DHT22;3829;50.798;4.358;2023-11-21T00:32:00;10.60;99.90
7576;DHT22;3829;50.798;4.358;2023-11-21T00:34:25;10.60;99.90
7576;DHT22;3829;50.798;4.358;2023-11-21T00:36:51;10.50;99.90
7576;DHT22;3829;50.798;4.358;2023-11-21T00:39:17;10.50;99.90
7576;DHT22;3829;50.798;4.358;2023-11-21T00:41:42;10.50;99.90
7576;DHT22;3829;50.798;4.358;2023-11-21T00:44:10;10.50;99.90
7576;DHT22;3829;50.798;4.358;2023-11-21T00:46:35;10.40;99.90
7576;DHT22;3829;50.798;4.358;2023-11-21T00:49:02;10.40;99.90
7576;DHT22;3829;50.798;4.358;2023-11-21T00:51:29;10.20;99.90
7576;DHT22;3829;50.798;4.358;2023-11-21T00:53:55;10.30;99.90
7576;DHT22;3829;50.798;4.358;2023-11-21T00:56:21;10.30;99.90
7576;DHT22;3829;50.798;4.358;2023-11-21T00:58:47;10.10;99.90
7576;DHT22;3829;50.798;4.358;2023-11-21T01:01:15;10.00;99.90
7576;DHT22;3829;50.798;4.358;2023-11-21T01:03:41;10.00;99.90
7576;DHT22;3829;50.798;4.358;2023-11-21T01:06:07;9.90;99.90
7576;DHT22;3829;50.798;4.358;2023-11-21T01:08:34;9.70;99.90
7576;DHT22;3829;50.798;4.358;2023-11-21T01:11:00;9.70;99.90
7576;DHT22;3829;50.798;4.358;2023-11-21T01:13:25;9.70;99.90
7576;DHT22;3829;50.798;4.358;2023-11-21T01:15:55;9.70;99.90
7576;DHT22;3829;50.798;4.358;2023-11-21T01:18:21;9.70;99.90
7576;DHT22;3829;50.798;4.358;2023-11-21T01:20:46;9.70;99.90
7576;DHT22;3829;50.798;4.358;2023-11-21T01:23:13;9.70;99.90
7576;DHT22;3829;50.798;4.358;2023-11-21T01:25:39;9.70;99.90
7576;DHT22;3829;50.798;4.358;2023-11-21T01:28:04;9.80;99.90
7576;DHT22;3829;50.798;4.358;2023-11-21T01:30:31;9.70;99.90
7576;DHT22;3829;50.798;4.358;2023-11-21T01:32:58;9.80;99.90
7576;DHT22;3829;50.798;4.358;2023-11-21T01:35:23;9.80;99.90
7576;DHT22;3829;50.798;4.358;2023-11-21T01:37:49;9.90;99.90
7576;DHT22;3829;50.798;4.358;2023-11-21T01:40:14;9.80;99.90
7576;DHT22;3829;50.798;4.358;2023-11-21T01:42:41;9.80;99.90
7576;DHT22;3829;50.798;4.358;2023-11-21T01:45:09;9.80;99.90
7576;DHT22;3829;50.798;4.358;2023-11-21T01:47:35;9.80;99.90
7576;DHT22;3829;50.798;4.358;2023-11-21T01:50:02;9.90;99.90
7576;DHT22;3829;50.798;4.358;2023-11-21T01:52:30;9.80;99.90
7576;DHT22;3829;50.798;4.358;2023-11-21T01:54:57;10.00;99.90
7576;DHT22;3829;50.798;4.358;2023-11-21T01:57:24;10.10;99.90
7576;DHT22;3829;50.798;4.358;2023-11-21T01:59:51;10.10;99.90
7576;DHT22;3829;50.798;4.358;2023-11-21T02:02:18;10.30;99.90
7576;DHT22;3829;50.798;4.358;2023-11-21T02:04:44;10.40;99.90
7576;DHT22;3829;50.798;4.358;2023-11-21T02:07:10;10.30;99.90
7576;DHT22;3829;50.798;4.358;2023-11-21T02:09:35;10.40;99.90
7576;DHT22;3829;50.798;4.358;2023-11-21T02:12:04;10.50;99.90
7576;DHT22;3829;50.798;4.358;2023-11-21T02:14:30;10.40;99.90
7576;DHT22;3829;50.798;4.358;2023-11-21T02:16:57;10.30;99.90
7576;DHT22;3829;50.798;4.358;2023-11-21T02:19:23;10.30;99.90
7576;DHT22;3829;50.798;4.358;2023-11-21T02:21:51;10.40;99.90
7576;DHT22;3829;50.798;4.358;2023-11-21T02:24:21;10.30;99.90
7576;DHT22;3829;50.798;4.358;2023-11-21T02:26:47;10.40;99.90
7576;DHT22;3829;50.798;4.358;2023-11-21T02:29:13;10.50;99.90
7576;DHT22;3829;50.798;4.358;2023-11-21T02:31:39;10.50;99.90
7576;DHT22;3829;50.798;4.358;2023-11-21T02:34:14;10.50;99.90
7576;DHT22;3829;50.798;4.358;2023-11-21T02:36:40;10.50;99.90
7576;DHT22;3829;50.798;4.358;2023-11-21T02:39:06;10.50;99.90
7576;DHT22;3829;50.798;4.358;2023-11-21T02:41:33;10.50;99.90
7576;DHT22;3829;50.798;4.358;2023-11-21T02:44:00;10.40;99.90
7576;DHT22;3829;50.798;4.358;2023-11-21T02:46:26;10.30;99.90
7576;DHT22;3829;50.798;4.358;2023-11-21T02:48:51;10.40;99.90
7576;DHT22;3829;50.798;4.358;2023-11-21T02:51:19;10.40;99.90
7576;DHT22;3829;50.798;4.358;2023-11-21T02:53:44;10.40;99.90
7576;DHT22;3829;50.798;4.358;2023-11-21T02:56:12;10.40;99.90
7576;DHT22;3829;50.798;4.358;2023-11-21T02:58:37;10.30;99.90
7576;DHT22;3829;50.798;4.358;2023-11-21T03:01:03;10.20;99.90
7576;DHT22;3829;50.798;4.358;2023-11-21T03:03:31;10.30;99.90
7576;DHT22;3829;50.798;4.358;2023-11-21T03:05:57;10.30;99.90
7576;DHT22;3829;50.798;4.358;2023-11-21T03:08:23;10.30;99.90
7576;DHT22;3829;50.798;4.358;2023-11-21T03:10:48;10.30;99.90
7576;DHT22;3829;50.798;4.358;2023-11-21T03:13:14;10.30;99.90
7576;DHT22;3829;50.798;4.358;2023-11-21T03:15:40;10.40;99.90
7576;DHT22;3829;50.798;4.358;2023-11-21T03:18:05;10.50;99.90
7576;DHT22;3829;50.798;4.358;2023-11-21T03:20:31;10.30;99.90
7576;DHT22;3829;50.798;4.358;2023-11-21T03:22:56;10.30;99.90
7576;DHT22;3829;50.798;4.358;2023-11-21T03:25:22;10.30;99.90
7576;DHT22;3829;50.798;4.358;2023-11-21T03:27:49;10.40;99.90
7576;DHT22;3829;50.798;4.358;2023-11-21T03:30:15;10.40;99.90
7576;DHT22;3829;50.798;4.358;2023-11-21T03:32:42;10.30;99.90
7576;DHT22;3829;50.798;4.358;2023-11-21T03:35:07;10.30;99.90
7576;DHT22;3829;50.798;4.358;2023-11-21T03:37:33;10.30;99.90
7576;DHT22;3829;50.798;4.358;2023-11-21T03:39:58;10.30;99.90
7576;DHT22;3829;50.798;4.358;2023-11-21T03:42:24;10.30;99.90
7576;DHT22;3829;50.798;4.358;2023-11-21T03:44:52;10.30;99.90
7576;DHT22;3829;50.798;4.358;2023-11-21T03:47:17;10.20;99.90
7576;DHT22;3829;50.798;4.358;2023-11-21T03:49:44;10.20;99.90
7576;DHT22;3829;50.798;4.358;2023-11-21T03:52:11;10.30;99.90
7576;DHT22;3829;50.798;4.358;2023-11-21T03:54:37;10.30;99.90
7576;DHT22;3829;50.798;4.358;2023-11-21T03:57:03;10.40;99.90
7576;DHT22;3829;50.798;4.358;2023-11-21T03:59:28;10.40;99.90
7576;DHT22;3829;50.798;4.358;2023-11-21T04:01:56;10.50;99.90
7576;DHT22;3829;50.798;4.358;2023-11-21T04:04:22;10.40;99.90
7576;DHT22;3829;50.798;4.358;2023-11-21T04:06:48;10.50;99.90
7576;DHT22;3829;50.798;4.358;2023-11-21T04:09:13;10.40;99.90
7576;DHT22;3829;50.798;4.358;2023-11-21T04:11:39;10.40;99.90
7576;DHT22;3829;50.798;4.358;2023-11-21T04:14:04;10.50;99.90
7576;DHT22;3829;50.798;4.358;2023-11-21T04:16:30;10.50;99.90
7576;DHT22;3829;50.798;4.358;2023-11-21T04:18:56;10.50;99.90
7576;DHT22;3829;50.798;4.358;2023-11-21T04:21:22;10.50;99.90
7576;DHT22;3829;50.798;4.358;2023-11-21T04:23:49;10.50;99.90
7576;DHT22;3829;50.798;4.358;2023-11-21T04:26:15;10.50;99.90
7576;DHT22;3829;50.798;4.358;2023-11-21T04:28:41;10.40;99.90
7576;DHT22;3829;50.798;4.358;2023-11-21T04:31:07;10.40;99.90
7576;DHT22;3829;50.798;4.358;2023-11-21T04:33:32;10.40;99.90
7576;DHT22;3829;50.798;4.358;2023-11-21T04:35:58;10.30;99.90
7576;DHT22;3829;50.798;4.358;2023-11-21T04:38:24;10.30;99.90
7576;DHT22;3829;50.798;4.358;2023-11-21T04:40:49;10.30;99.90
7576;DHT22;3829;50.798;4.358;2023-11-21T04:43:15;10.40;99.90
7576;DHT22;3829;50.798;4.358;2023-11-21T04:45:40;10.50;99.90
7576;DHT22;3829;50.798;4.358;2023-11-21T04:48:07;10.40;99.90
7576;DHT22;3829;50.798;4.358;2023-11-21T04:50:34;10.40;99.90
7576;DHT22;3829;50.798;4.358;2023-11-21T04:52:59;10.40;99.90
7576;DHT22;3829;50.798;4.358;2023-11-21T04:55:25;10.40;99.90
7576;DHT22;3829;50.798;4.358;2023-11-21T04:57:54;10.40;99.90
7576;DHT22;3829;50.798;4.358;2023-11-21T05:00:19;10.40;99.90
7576;DHT22;3829;50.798;4.358;2023-11-21T05:02:46;10.30;99.90
7576;DHT22;3829;50.798;4.358;2023-11-21T05:05:13;10.30;99.90
7576;DHT22;3829;50.798;4.358;2023-11-21T05:07:40;10.30;99.90
7576;DHT22;3829;50.798;4.358;2023-11-21T05:10:07;10.40;99.90
7576;DHT22;3829;50.798;4.358;2023-11-21T05:12:36;10.40;99.90
7576;DHT22;3829;50.798;4.358;2023-11-21T05:15:04;10.50;99.90
7576;DHT22;3829;50.798;4.358;2023-11-21T05:17:38;10.50;99.90
7576;DHT22;3829;50.798;4.358;2023-11-21T05:20:08;10.60;99.90
7576;DHT22;3829;50.798;4.358;2023-11-21T05:22:35;10.50;99.90
7576;DHT22;3829;50.798;4.358;2023-11-21T05:25:02;10.70;99.90
7576;DHT22;3829;50.798;4.358;2023-11-21T05:27:29;10.70;99.90
7576;DHT22;3829;50.798;4.358;2023-11-21T05:29:56;10.60;99.90
7576;DHT22;3829;50.798;4.358;2023-11-21T05:32:22;10.60;99.90
7576;DHT22;3829;50.798;4.358;2023-11-21T05:34:49;10.70;99.90
7576;DHT22;3829;50.798;4.358;2023-11-21T05:37:14;10.60;99.90
7576;DHT22;3829;50.798;4.358;2023-11-21T05:39:40;10.70;99.90
7576;DHT22;3829;50.798;4.358;2023-11-21T05:42:06;10.70;99.90
7576;DHT22;3829;50.798;4.358;2023-11-21T05:44:31;10.60;99.90
7576;DHT22;3829;50.798;4.358;2023-11-21T05:46:57;10.80;99.90
7576;DHT22;3829;50.798;4.358;2023-11-21T05:49:24;10.80;99.90
7576;DHT22;3829;50.798;4.358;2023-11-21T05:51:53;10.80;99.90
7576;DHT22;3829;50.798;4.358;2023-11-21T05:54:19;10.80;99.90
7576;DHT22;3829;50.798;4.358;2023-11-21T05:56:46;10.90;99.90
7576;DHT22;3829;50.798;4.358;2023-11-21T05:59:12;10.80;99.90
7576;DHT22;3829;50.798;4.358;2023-11-21T06:01:38;10.80;99.90
7576;DHT22;3829;50.798;4.358;2023-11-21T06:04:04;10.70;99.90
7576;DHT22;3829;50.798;4.358;2023-11-21T06:06:30;10.70;99.90
7576;DHT22;3829;50.798;4.358;2023-11-21T06:08:57;10.70;99.90
7576;DHT22;3829;50.798;4.358;2023-11-21T06:11:22;10.70;99.90
7576;DHT22;3829;50.798;4.358;2023-11-21T06:13:48;10.80;99.90
7576;DHT22;3829;50.798;4.358;2023-11-21T06:16:15;10.80;99.90
7576;DHT22;3829;50.798;4.358;2023-11-21T06:18:42;10.80;99.90
7576;DHT22;3829;50.798;4.358;2023-11-21T06:21:10;10.90;99.90
7576;DHT22;3829;50.798;4.358;2023-11-21T06:23:36;10.80;99.90
7576;DHT22;3829;50.798;4.358;2023-11-21T06:26:01;10.80;99.90
7576;DHT22;3829;50.798;4.358;2023-11-21T06:28:27;10.80;99.90
7576;DHT22;3829;50.798;4.358;2023-11-21T06:30:52;10.90;99.90
7576;DHT22;3829;50.798;4.358;2023-11-21T06:33:18;11.00;99.90
7576;DHT22;3829;50.798;4.358;2023-11-21T06:35:44;10.90;99.90
7576;DHT22;3829;50.798;4.358;2023-11-21T06:38:10;10.90;99.90
7576;DHT22;3829;50.798;4.358;2023-11-21T06:40:36;10.80;99.90
7576;DHT22;3829;50.798;4.358;2023-11-21T06:43:02;10.80;99.90
7576;DHT22;3829;50.798;4.358;2023-11-21T06:45:27;10.80;99.90
7576;DHT22;3829;50.798;4.358;2023-11-21T06:47:53;10.80;99.90
7576;DHT22;3829;50.798;4.358;2023-11-21T06:50:19;10.80;99.90
7576;DHT22;3829;50.798;4.358;2023-11-21T06:52:44;10.90;99.90
7576;DHT22;3829;50.798;4.358;2023-11-21T06:55:10;10.80;99.90
7576;DHT22;3829;50.798;4.358;2023-11-21T06:57:36;10.90;99.90
7576;DHT22;3829;50.798;4.358;2023-11-21T07:00:02;10.90;99.90
7576;DHT22;3829;50.798;4.358;2023-11-21T07:02:28;10.90;99.90
7576;DHT22;3829;50.798;4.358;2023-11-21T07:04:54;10.90;99.90
7576;DHT22;3829;50.798;4.358;2023-11-21T07:07:20;10.80;99.90
7576;DHT22;3829;50.798;4.358;2023-11-21T07:09:45;10.80;99.90
7576;DHT22;3829;50.798;4.358;2023-11-21T07:12:11;10.80;99.90
7576;DHT22;3829;50.798;4.358;2023-11-21T07:14:37;10.80;99.90
7576;DHT22;3829;50.798;4.358;2023-11-21T07:17:04;10.80;99.90
7576;DHT22;3829;50.798;4.358;2023-11-21T07:19:30;10.90;99.90
7576;DHT22;3829;50.798;4.358;2023-11-21T07:21:56;10.90;99.90
7576;DHT22;3829;50.798;4.358;2023-11-21T07:24:22;10.90;99.90
7576;DHT22;3829;50.798;4.358;2023-11-21T07:26:48;10.80;99.90
7576;DHT22;3829;50.798;4.358;2023-11-21T07:29:14;10.90;99.90
7576;DHT22;3829;50.798;4.358;2023-11-21T07:31:40;10.80;99.90
7576;DHT22;3829;50.798;4.358;2023-11-21T07:34:06;10.80;99.90
7576;DHT22;3829;50.798;4.358;2023-11-21T07:36:33;10.80;99.90
7576;DHT22;3829;50.798;4.358;2023-11-21T07:38:59;10.80;99.90
7576;DHT22;3829;50.798;4.358;2023-11-21T07:41:24;10.70;99.90
7576;DHT22;3829;50.798;4.358;2023-11-21T07:43:50;10.80;99.90
7576;DHT22;3829;50.798;4.358;2023-11-21T07:46:16;10.80;99.90
7576;DHT22;3829;50.798;4.358;2023-11-21T07:48:42;10.90;99.90
7576;DHT22;3829;50.798;4.358;2023-11-21T07:51:08;11.00;99.90
7576;DHT22;3829;50.798;4.358;2023-11-21T07:53:35;11.00;99.90
7576;DHT22;3829;50.798;4.358;2023-11-21T07:56:09;11.00;99.90
7576;DHT22;3829;50.798;4.358;2023-11-21T07:58:35;11.00;99.90
7576;DHT22;3829;50.798;4.358;2023-11-21T08:01:02;11.00;99.90
7576;DHT22;3829;50.798;4.358;2023-11-21T08:03:27;11.00;99.90
7576;DHT22;3829;50.798;4.358;2023-11-21T08:05:58;11.00;99.90
7576;DHT22;3829;50.798;4.358;2023-11-21T08:08:25;11.10;99.90
7576;DHT22;3829;50.798;4.358;2023-11-21T08:10:51;11.10;99.90
7576;DHT22;3829;50.798;4.358;2023-11-21T08:13:23;11.10;99.90
7576;DHT22;3829;50.798;4.358;2023-11-21T08:15:49;11.20;99.90
7576;DHT22;3829;50.798;4.358;2023-11-21T08:18:19;11.10;99.90
7576;DHT22;3829;50.798;4.358;2023-11-21T08:20:45;11.20;99.90
7576;DHT22;3829;50.798;4.358;2023-11-21T08:23:15;11.30;99.90
7576;DHT22;3829;50.798;4.358;2023-11-21T08:25:43;11.30;99.90
7576;DHT22;3829;50.798;4.358;2023-11-21T08:28:09;11.20;99.90
7576;DHT22;3829;50.798;4.358;2023-11-21T08:30:35;11.30;99.90
7576;DHT22;3829;50.798;4.358;2023-11-21T08:33:01;11.20;99.90
7576;DHT22;3829;50.798;4.358;2023-11-21T08:35:28;11.30;99.90
7576;DHT22;3829;50.798;4.358;2023-11-21T08:37:54;11.30;99.90
7576;DHT22;3829;50.798;4.358;2023-11-21T08:40:22;11.40;99.90
7576;DHT22;3829;50.798;4.358;2023-11-21T08:42:49;11.40;99.90
7576;DHT22;3829;50.798;4.358;2023-11-21T08:45:17;11.40;99.90
7576;DHT22;3829;50.798;4.358;2023-11-21T08:47:43;11.50;99.90
7576;DHT22;3829;50.798;4.358;2023-11-21T08:50:10;11.60;99.90
7576;DHT22;3829;50.798;4.358;2023-11-21T08:52:39;11.60;99.90
7576;DHT22;3829;50.798;4.358;2023-11-21T08:55:06;11.60;99.90
7576;DHT22;3829;50.798;4.358;2023-11-21T08:57:36;11.60;99.90
7576;DHT22;3829;50.798;4.358;2023-11-21T09:00:04;11.60;99.90
7576;DHT22;3829;50.798;4.358;2023-11-21T09:02:37;11.50;99.90
7576;DHT22;3829;50.798;4.358;2023-11-21T09:05:04;11.70;99.90
7576;DHT22;3829;50.798;4.358;2023-11-21T09:07:31;11.70;99.90
7576;DHT22;3829;50.798;4.358;2023-11-21T09:09:56;11.70;99.90
7576;DHT22;3829;50.798;4.358;2023-11-21T09:12:22;11.90;99.90
7576;DHT22;3829;50.798;4.358;2023-11-21T09:14:50;11.70;99.90
7576;DHT22;3829;50.798;4.358;2023-11-21T09:17:16;11.80;99.90
7576;DHT22;3829;50.798;4.358;2023-11-21T09:19:42;11.90;99.90
7576;DHT22;3829;50.798;4.358;2023-11-21T09:22:10;11.90;99.90
7576;DHT22;3829;50.798;4.358;2023-11-21T09:24:36;12.00;99.90
7576;DHT22;3829;50.798;4.358;2023-11-21T09:27:03;12.00;99.90
7576;DHT22;3829;50.798;4.358;2023-11-21T09:29:29;12.00;99.90
7576;DHT22;3829;50.798;4.358;2023-11-21T09:31:55;11.90;99.90
7576;DHT22;3829;50.798;4.358;2023-11-21T09:34:21;11.90;99.90
7576;DHT22;3829;50.798;4.358;2023-11-21T09:36:47;12.00;99.90
7576;DHT22;3829;50.798;4.358;2023-11-21T09:39:14;12.00;99.90
7576;DHT22;3829;50.798;4.358;2023-11-21T09:44:32;11.50;99.90
7576;DHT22;3829;50.798;4.358;2023-11-21T09:47:00;11.50;99.90
7576;DHT22;3829;50.798;4.358;2023-11-21T09:49:26;11.50;99.90
7576;DHT22;3829;50.798;4.358;2023-11-21T09:51:55;11.50;99.90
7576;DHT22;3829;50.798;4.358;2023-11-21T09:54:22;11.70;99.90
7576;DHT22;3829;50.798;4.358;2023-11-21T09:56:49;11.60;99.90
7576;DHT22;3829;50.798;4.358;2023-11-21T09:59:15;11.50;99.90
7576;DHT22;3829;50.798;4.358;2023-11-21T10:01:42;11.70;99.90
7576;DHT22;3829;50.798;4.358;2023-11-21T10:04:09;11.70;99.90
7576;DHT22;3829;50.798;4.358;2023-11-21T10:06:39;11.70;99.90
7576;DHT22;3829;50.798;4.358;2023-11-21T10:09:09;11.90;99.90
7576;DHT22;3829;50.798;4.358;2023-11-21T10:11:40;11.90;99.90
7576;DHT22;3829;50.798;4.358;2023-11-21T10:14:08;11.90;99.90
7576;DHT22;3829;50.798;4.358;2023-11-21T10:16:36;11.90;99.90
7576;DHT22;3829;50.798;4.358;2023-11-21T10:19:05;12.00;99.90
7576;DHT22;3829;50.798;4.358;2023-11-21T10:21:33;12.10;99.90
7576;DHT22;3829;50.798;4.358;2023-11-21T10:23:59;11.90;99.90
7576;DHT22;3829;50.798;4.358;2023-11-21T10:26:26;12.00;99.90
7576;DHT22;3829;50.798;4.358;2023-11-21T10:28:57;12.10;99.90
7576;DHT22;3829;50.798;4.358;2023-11-21T10:31:25;12.20;99.90
7576;DHT22;3829;50.798;4.358;2023-11-21T10:33:52;12.00;99.90
7576;DHT22;3829;50.798;4.358;2023-11-21T10:36:27;11.80;99.90
7576;DHT22;3829;50.798;4.358;2023-11-21T10:38:53;11.80;99.90
7576;DHT22;3829;50.798;4.358;2023-11-21T10:41:20;11.70;99.90
7576;DHT22;3829;50.798;4.358;2023-11-21T10:43:46;11.80;99.90
7576;DHT22;3829;50.798;4.358;2023-11-21T10:46:16;12.00;99.90
7576;DHT22;3829;50.798;4.358;2023-11-21T10:48:42;12.10;99.90
7576;DHT22;3829;50.798;4.358;2023-11-21T10:51:08;12.10;99.90
7576;DHT22;3829;50.798;4.358;2023-11-21T10:53:39;12.20;99.90
7576;DHT22;3829;50.798;4.358;2023-11-21T10:56:08;12.30;99.90
7576;DHT22;3829;50.798;4.358;2023-11-21T10:58:37;12.20;99.90
7576;DHT22;3829;50.798;4.358;2023-11-21T11:01:06;12.30;99.90
7576;DHT22;3829;50.798;4.358;2023-11-21T11:03:32;12.30;99.90
7576;DHT22;3829;50.798;4.358;2023-11-21T11:06:04;12.30;99.90
7576;DHT22;3829;50.798;4.358;2023-11-21T11:08:30;12.40;99.90
7576;DHT22;3829;50.798;4.358;2023-11-21T11:10:57;12.40;99.90
7576;DHT22;3829;50.798;4.358;2023-11-21T11:13:24;12.60;99.90
7576;DHT22;3829;50.798;4.358;2023-11-21T11:15:50;12.70;99.90
7576;DHT22;3829;50.798;4.358;2023-11-21T11:18:21;12.80;99.90
7576;DHT22;3829;50.798;4.358;2023-11-21T11:20:49;12.60;99.90
7576;DHT22;3829;50.798;4.358;2023-11-21T11:23:32;12.50;99.90
7576;DHT22;3829;50.798;4.358;2023-11-21T11:28:54;12.70;99.90
7576;DHT22;3829;50.798;4.358;2023-11-21T11:34:24;12.70;99.90
7576;DHT22;3829;50.798;4.358;2023-11-21T11:37:00;12.70;99.90
7576;DHT22;3829;50.798;4.358;2023-11-21T11:39:31;12.50;99.90
7576;DHT22;3829;50.798;4.358;2023-11-21T11:42:02;12.60;99.90
7576;DHT22;3829;50.798;4.358;2023-11-21T11:47:28;12.60;99.90
7576;DHT22;3829;50.798;4.358;2023-11-21T11:50:10;12.70;99.90
7576;DHT22;3829;50.798;4.358;2023-11-21T11:52:43;12.80;99.90
7576;DHT22;3829;50.798;4.358;2023-11-21T11:55:12;12.90;99.90
7576;DHT22;3829;50.798;4.358;2023-11-21T11:57:41;12.70;99.90
7576;DHT22;3829;50.798;4.358;2023-11-21T12:00:14;12.40;99.90
7576;DHT22;3829;50.798;4.358;2023-11-21T12:02:52;12.40;99.90
7576;DHT22;3829;50.798;4.358;2023-11-21T12:05:20;12.40;99.90
7576;DHT22;3829;50.798;4.358;2023-11-21T12:07:51;12.20;99.90
7576;DHT22;3829;50.798;4.358;2023-11-21T12:10:20;12.10;99.90
7576;DHT22;3829;50.798;4.358;2023-11-21T12:12:47;12.30;99.90
7576;DHT22;3829;50.798;4.358;2023-11-21T12:15:14;11.90;99.90
7576;DHT22;3829;50.798;4.358;2023-11-21T12:17:42;11.80;99.90
7576;DHT22;3829;50.798;4.358;2023-11-21T12:20:09;11.80;99.90
7576;DHT22;3829;50.798;4.358;2023-11-21T12:22:44;11.60;99.90
7576;DHT22;3829;50.798;4.358;2023-11-21T12:25:21;11.60;99.90
7576;DHT22;3829;50.798;4.358;2023-11-21T12:27:48;11.70;99.90
7576;DHT22;3829;50.798;4.358;2023-11-21T12:30:16;11.70;99.90
7576;DHT22;3829;50.798;4.358;2023-11-21T12:32:44;11.80;99.90
7576;DHT22;3829;50.798;4.358;2023-11-21T12:35:12;11.70;99.90
7576;DHT22;3829;50.798;4.358;2023-11-21T12:37:38;11.70;99.90
7576;DHT22;3829;50.798;4.358;2023-11-21T12:40:06;11.80;99.90
7576;DHT22;3829;50.798;4.358;2023-11-21T12:42:34;11.70;99.90
7576;DHT22;3829;50.798;4.358;2023-11-21T12:45:10;11.50;99.90
7576;DHT22;3829;50.798;4.358;2023-11-21T12:47:44;11.80;99.90
7576;DHT22;3829;50.798;4.358;2023-11-21T12:50:10;11.80;99.90
7576;DHT22;3829;50.798;4.358;2023-11-21T12:52:47;11.70;99.90
7576;DHT22;3829;50.798;4.358;2023-11-21T12:55:17;11.90;99.90
7576;DHT22;3829;50.798;4.358;2023-11-21T12:57:45;12.00;99.90
7576;DHT22;3829;50.798;4.358;2023-11-21T13:00:12;12.00;99.90
7576;DHT22;3829;50.798;4.358;2023-11-21T13:02:50;12.00;99.90
7576;DHT22;3829;50.798;4.358;2023-11-21T13:05:25;11.80;99.90
7576;DHT22;3829;50.798;4.358;2023-11-21T13:07:52;11.80;99.90
7576;DHT22;3829;50.798;4.358;2023-11-21T13:10:22;11.80;99.90
7576;DHT22;3829;50.798;4.358;2023-11-21T13:12:51;12.00;99.90
7576;DHT22;3829;50.798;4.358;2023-11-21T13:15:17;11.90;99.90
7576;DHT22;3829;50.798;4.358;2023-11-21T13:17:44;12.00;99.90
7576;DHT22;3829;50.798;4.358;2023-11-21T13:20:11;11.70;99.90
7576;DHT22;3829;50.798;4.358;2023-11-21T13:22:50;11.60;99.90
7576;DHT22;3829;50.798;4.358;2023-11-21T13:25:20;11.50;99.90
7576;DHT22;3829;50.798;4.358;2023-11-21T13:27:46;11.60;99.90
7576;DHT22;3829;50.798;4.358;2023-11-21T13:30:13;11.60;99.90
7576;DHT22;3829;50.798;4.358;2023-11-21T13:32:42;11.50;99.90
7576;DHT22;3829;50.798;4.358;2023-11-21T13:35:08;11.40;99.90
7576;DHT22;3829;50.798;4.358;2023-11-21T13:37:37;11.40;99.90
7576;DHT22;3829;50.798;4.358;2023-11-21T13:40:03;11.30;99.90
7576;DHT22;3829;50.798;4.358;2023-11-21T13:42:35;11.50;99.90
7576;DHT22;3829;50.798;4.358;2023-11-21T13:45:01;11.60;99.90
7576;DHT22;3829;50.798;4.358;2023-11-21T13:47:26;11.40;99.90
7576;DHT22;3829;50.798;4.358;2023-11-21T13:49:55;11.40;99.90
7576;DHT22;3829;50.798;4.358;2023-11-21T13:52:20;11.30;99.90
7576;DHT22;3829;50.798;4.358;2023-11-21T13:54:49;11.40;99.90
7576;DHT22;3829;50.798;4.358;2023-11-21T13:57:16;11.30;99.90
7576;DHT22;3829;50.798;4.358;2023-11-21T13:59:41;11.30;99.90
7576;DHT22;3829;50.798;4.358;2023-11-21T14:02:09;11.40;99.90
7576;DHT22;3829;50.798;4.358;2023-11-21T14:04:43;11.50;99.90
7576;DHT22;3829;50.798;4.358;2023-11-21T14:07:21;11.40;99.90
7576;DHT22;3829;50.798;4.358;2023-11-21T14:09:57;11.40;99.90
7576;DHT22;3829;50.798;4.358;2023-11-21T14:12:24;11.30;99.90
7576;DHT22;3829;50.798;4.358;2023-11-21T14:14:49;11.10;99.90
7576;DHT22;3829;50.798;4.358;2023-11-21T14:17:15;11.20;99.90
7576;DHT22;3829;50.798;4.358;2023-11-21T14:19:41;11.20;99.90
7576;DHT22;3829;50.798;4.358;2023-11-21T14:22:10;11.20;99.90
7576;DHT22;3829;50.798;4.358;2023-11-21T14:24:35;11.10;99.90
7576;DHT22;3829;50.798;4.358;2023-11-21T14:27:02;11.10;99.90
7576;DHT22;3829;50.798;4.358;2023-11-21T14:29:28;11.20;99.90
7576;DHT22;3829;50.798;4.358;2023-11-21T14:31:55;11.20;99.90
7576;DHT22;3829;50.798;4.358;2023-11-21T14:34:23;11.00;99.90
7576;DHT22;3829;50.798;4.358;2023-11-21T14:36:50;11.10;99.90
7576;DHT22;3829;50.798;4.358;2023-11-21T14:39:16;11.00;99.90
7576;DHT22;3829;50.798;4.358;2023-11-21T14:41:49;11.00;99.90
7576;DHT22;3829;50.798;4.358;2023-11-21T14:44:15;11.00;99.90
7576;DHT22;3829;50.798;4.358;2023-11-21T14:46:41;11.10;99.90
7576;DHT22;3829;50.798;4.358;2023-11-21T14:49:12;11.10;99.90
7576;DHT22;3829;50.798;4.358;2023-11-21T14:51:46;11.10;99.90
7576;DHT22;3829;50.798;4.358;2023-11-21T14:54:27;10.90;99.90
7576;DHT22;3829;50.798;4.358;2023-11-21T14:57:06;10.90;99.90
7576;DHT22;3829;50.798;4.358;2023-11-21T14:59:42;11.00;99.90
7576;DHT22;3829;50.798;4.358;2023-11-21T15:02:08;11.00;99.90
7576;DHT22;3829;50.798;4.358;2023-11-21T15:04:46;10.90;99.90
7576;DHT22;3829;50.798;4.358;2023-11-21T15:07:11;10.90;99.90
7576;DHT22;3829;50.798;4.358;2023-11-21T15:09:37;10.80;99.90
7576;DHT22;3829;50.798;4.358;2023-11-21T15:12:08;10.80;99.90
7576;DHT22;3829;50.798;4.358;2023-11-21T15:14:42;10.90;99.90
7576;DHT22;3829;50.798;4.358;2023-11-21T15:17:09;10.90;99.90
7576;DHT22;3829;50.798;4.358;2023-11-21T15:19:35;10.80;99.90
7576;DHT22;3829;50.798;4.358;2023-11-21T15:22:01;10.90;99.90
7576;DHT22;3829;50.798;4.358;2023-11-21T15:24:27;10.90;99.90
7576;DHT22;3829;50.798;4.358;2023-11-21T15:26:53;11.00;99.90
7576;DHT22;3829;50.798;4.358;2023-11-21T15:29:19;10.80;99.90
7576;DHT22;3829;50.798;4.358;2023-11-21T15:31:46;10.90;99.90
7576;DHT22;3829;50.798;4.358;2023-11-21T15:34:15;11.00;99.90
7576;DHT22;3829;50.798;4.358;2023-11-21T15:36:40;11.10;99.90
7576;DHT22;3829;50.798;4.358;2023-11-21T15:39:06;11.10;99.90
7576;DHT22;3829;50.798;4.358;2023-11-21T15:41:35;11.00;99.90
7576;DHT22;3829;50.798;4.358;2023-11-21T15:44:02;10.80;99.90
7576;DHT22;3829;50.798;4.358;2023-11-21T15:46:29;10.80;99.90
7576;DHT22;3829;50.798;4.358;2023-11-21T15:48:55;10.90;99.90
7576;DHT22;3829;50.798;4.358;2023-11-21T15:51:21;10.80;99.90
7576;DHT22;3829;50.798;4.358;2023-11-21T15:53:46;10.80;99.90
7576;DHT22;3829;50.798;4.358;2023-11-21T15:56:12;10.80;99.90
7576;DHT22;3829;50.798;4.358;2023-11-21T15:58:41;10.80;99.90
7576;DHT22;3829;50.798;4.358;2023-11-21T16:01:09;10.90;99.90
7576;DHT22;3829;50.798;4.358;2023-11-21T16:03:36;11.00;99.90
7576;DHT22;3829;50.798;4.358;2023-11-21T16:06:05;10.90;99.90
7576;DHT22;3829;50.798;4.358;2023-11-21T16:08:38;11.00;99.90
7576;DHT22;3829;50.798;4.358;2023-11-21T16:11:07;11.00;99.90
7576;DHT22;3829;50.798;4.358;2023-11-21T16:13:34;10.80;99.90